Time;durP1;ratioP1;P1;durP2;ratioP2;P2;SDS_P1;SDS_P2;PMS_P1;PMS_P2;Temp;Humidity;BMP_temperature;BMP_pressure;BME280_temperature;BME280_humidity;BME280_pressure;Samples;Min_cycle;Max_cycle;Signal;HPM_P1;HPM_P2
2022/04/19 00:01:11;;;;;;;9.45;4.85;;;;;;;10.34;100.00;99142.97;4830733;29;20041;-87
2022/04/19 00:03:37;;;;;;;4.65;3.85;;;;;;;10.34;100.00;99140.34;4848284;29;20053;-87
2022/04/19 00:06:04;;;;;;;9.70;4.20;;;;;;;10.13;100.00;99128.88;4827216;29;20062;-88
2022/04/19 00:08:30;;;;;;;9.02;4.25;;;;;;;10.03;100.00;99117.91;4858473;29;20524;-87
2022/04/19 00:10:56;;;;;;;10.98;4.43;;;;;;;10.23;100.00;99130.38;4831760;29;20046;-86
2022/04/19 00:13:22;;;;;;;8.73;4.32;;;;;;;10.32;100.00;99136.28;4846448;29;20116;-89
2022/04/19 00:15:47;;;;;;;9.13;4.30;;;;;;;10.13;100.00;99131.50;4845386;29;20037;-88
2022/04/19 00:18:13;;;;;;;9.27;4.28;;;;;;;10.14;100.00;99135.75;4844946;29;20038;-86
2022/04/19 00:20:42;;;;;;;7.82;4.15;;;;;;;10.05;100.00;99136.88;4842723;29;20480;-86
2022/04/19 00:23:15;;;;;;;7.35;4.10;;;;;;;9.81;100.00;99089.06;4842379;29;20146;-86
2022/04/19 00:25:47;;;;;;;6.50;4.00;;;;;;;10.00;100.00;99121.72;4844303;29;20029;-85
2022/04/19 00:28:13;;;;;;;8.05;4.15;;;;;;;10.00;100.00;99131.38;4827565;29;20236;-86
2022/04/19 00:30:40;;;;;;;12.45;4.05;;;;;;;9.89;100.00;99137.13;4843569;29;20481;-87
2022/04/19 00:33:07;;;;;;;14.77;4.30;;;;;;;9.94;100.00;99132.13;4845826;29;20049;-86
2022/04/19 00:35:33;;;;;;;10.80;4.60;;;;;;;9.77;100.00;99123.72;4846067;29;20034;-86
2022/04/19 00:37:59;;;;;;;8.55;4.07;;;;;;;9.90;100.00;99136.13;4842806;29;20038;-87
2022/04/19 00:40:26;;;;;;;7.97;4.13;;;;;;;10.01;100.00;99135.63;4857106;29;20030;-87
2022/04/19 00:42:54;;;;;;;8.77;4.05;;;;;;;10.09;100.00;99132.06;4828822;29;20037;-86
2022/04/19 00:45:22;;;;;;;12.13;4.80;;;;;;;10.17;100.00;99134.56;4843412;29;20037;-86
2022/04/19 00:47:51;;;;;;;7.28;4.13;;;;;;;10.34;100.00;99129.84;4851359;29;20465;-86
2022/04/19 00:50:17;;;;;;;7.88;4.60;;;;;;;10.24;100.00;99113.63;4843397;29;20446;-86
2022/04/19 00:52:44;;;;;;;10.05;4.28;;;;;;;10.45;100.00;99140.84;4827768;29;20040;-85
2022/04/19 00:55:10;;;;;;;7.68;4.22;;;;;;;10.45;100.00;99120.66;4843018;29;20108;-86
2022/04/19 00:57:38;;;;;;;7.80;3.63;;;;;;;10.38;100.00;99115.34;4843701;29;20755;-87
2022/04/19 01:00:08;;;;;;;9.80;3.67;;;;;;;10.47;100.00;99128.34;4845807;29;20030;-88
2022/04/19 01:02:35;;;;;;;10.90;4.00;;;;;;;10.27;100.00;99105.38;4841052;29;20048;-88
2022/04/19 01:05:01;;;;;;;8.93;3.72;;;;;;;10.42;100.00;99127.13;4856824;29;20106;-87
2022/04/19 01:07:29;;;;;;;8.65;3.95;;;;;;;10.43;100.00;99128.75;4840235;29;20405;-88
2022/04/19 01:09:55;;;;;;;6.88;3.55;;;;;;;10.35;100.00;99131.47;4851388;29;20044;-88
2022/04/19 01:15:08;;;;;;;7.05;3.42;;;;;;;10.27;100.00;99119.28;4851026;29;20033;-88
2022/04/19 01:17:36;;;;;;;9.30;4.13;;;;;;;10.15;100.00;99111.13;4842859;29;20381;-87
2022/04/19 01:20:03;;;;;;;4.57;3.28;;;;;;;10.14;100.00;99122.63;4828344;29;20057;-87
2022/04/19 01:22:39;;;;;;;7.20;2.95;;;;;;;10.10;100.00;99129.25;4859981;29;20052;-87
2022/04/19 01:25:06;;;;;;;8.43;3.88;;;;;;;9.96;100.00;99117.84;4848610;29;20034;-88
2022/04/19 01:27:33;;;;;;;6.60;3.38;;;;;;;9.88;100.00;99125.03;4864057;29;20034;-89
2022/04/19 01:30:03;;;;;;;7.05;3.15;;;;;;;9.74;100.00;99111.00;4858279;29;20033;-89
2022/04/19 01:32:30;;;;;;;8.52;3.55;;;;;;;9.62;100.00;99110.66;4852108;29;20408;-89
2022/04/19 01:35:27;;;;;;;6.55;3.17;;;;;;;9.68;100.00;99123.81;4857775;29;20041;-88
2022/04/19 01:37:52;;;;;;;7.43;3.70;;;;;;;9.50;100.00;99111.16;4838540;29;20064;-88
2022/04/19 01:40:18;;;;;;;7.25;3.75;;;;;;;9.57;100.00;99129.56;4857687;29;20104;-87
2022/04/19 01:42:48;;;;;;;10.23;4.13;;;;;;;9.45;100.00;99126.63;4848425;29;20037;-85
2022/04/19 01:45:18;;;;;;;8.40;3.50;;;;;;;9.46;100.00;99125.63;4844701;29;20397;-85
2022/04/19 01:47:44;;;;;;;6.88;3.53;;;;;;;9.25;100.00;99103.63;4832834;29;20029;-85
2022/04/19 01:50:13;;;;;;;13.80;3.63;;;;;;;9.46;100.00;99123.00;4846496;29;20393;-84
2022/04/19 01:52:39;;;;;;;8.40;3.38;;;;;;;9.29;100.00;99125.84;4846775;29;20102;-85
2022/04/19 01:55:13;;;;;;;8.27;3.88;;;;;;;9.17;100.00;99108.16;4844954;29;20044;-85
2022/04/19 01:57:43;;;;;;;8.25;3.17;;;;;;;9.10;100.00;99124.59;4828636;29;20098;-86
2022/04/19 02:00:11;;;;;;;11.43;3.70;;;;;;;9.02;100.00;99123.88;4863357;29;20029;-85
2022/04/19 02:02:37;;;;;;;9.00;3.47;;;;;;;8.95;100.00;99116.75;4827384;29;20070;-85
2022/04/19 02:05:04;;;;;;;10.93;3.22;;;;;;;8.86;100.00;99104.78;4845504;29;20037;-85
2022/04/19 02:07:32;;;;;;;6.30;3.35;;;;;;;8.88;100.00;99110.66;4843801;29;20393;-85
2022/04/19 02:10:02;;;;;;;10.25;3.63;;;;;;;8.78;100.00;99121.38;4828897;29;20125;-85
2022/04/19 02:12:28;;;;;;;7.63;3.50;;;;;;;8.71;100.00;99110.81;4858502;29;20116;-84
2022/04/19 02:14:54;;;;;;;8.95;4.45;;;;;;;8.66;100.00;99110.56;4843889;29;20481;-85
2022/04/19 02:17:22;;;;;;;8.60;3.55;;;;;;;8.59;100.00;99099.16;4847399;29;20045;-86
2022/04/19 02:19:47;;;;;;;6.75;3.00;;;;;;;8.71;100.00;99116.06;4830952;29;20093;-86
2022/04/19 02:22:14;;;;;;;10.50;3.67;;;;;;;8.75;100.00;99113.06;4846396;29;20568;-86
2022/04/19 02:24:40;;;;;;;6.85;3.25;;;;;;;8.66;100.00;99105.31;4847352;29;20121;-86
2022/04/19 02:27:06;;;;;;;7.85;3.10;;;;;;;8.72;100.00;99116.84;4847621;29;20109;-86
2022/04/19 02:29:34;;;;;;;11.02;3.33;;;;;;;8.64;100.00;99112.50;4845399;29;20489;-85
2022/04/19 02:32:00;;;;;;;9.68;3.30;;;;;;;8.61;100.00;99104.22;4847418;29;20523;-86
2022/04/19 02:34:26;;;;;;;11.30;3.63;;;;;;;8.68;100.00;99121.66;4847865;29;20044;-85
2022/04/19 02:36:53;;;;;;;6.53;3.08;;;;;;;8.39;100.00;99089.19;4843223;29;20442;-86
2022/04/19 02:39:20;;;;;;;9.05;2.90;;;;;;;8.57;100.00;99122.09;4860910;29;20036;-88
2022/04/19 02:41:46;;;;;;;9.52;3.25;;;;;;;8.28;100.00;99090.44;4852629;29;20068;-88
2022/04/19 02:44:13;;;;;;;8.07;2.95;;;;;;;8.48;100.00;99112.69;4851340;29;20030;-88
2022/04/19 02:46:38;;;;;;;5.43;2.85;;;;;;;8.36;100.00;99100.03;4851469;29;20427;-87
2022/04/19 02:49:04;;;;;;;9.45;3.05;;;;;;;8.41;100.00;99123.84;4819803;29;20038;-89
2022/04/19 02:51:33;;;;;;;12.27;3.50;;;;;;;8.38;100.00;99113.72;4834594;29;20512;-89
2022/04/19 02:54:00;;;;;;;10.40;3.70;;;;;;;8.41;100.00;99131.69;4847325;29;20029;-87
2022/04/19 02:56:25;;;;;;;6.85;2.90;;;;;;;8.44;100.00;99136.56;4822860;29;20045;-87
2022/04/19 02:58:51;;;;;;;7.45;3.42;;;;;;;8.32;100.00;99111.84;4833520;29;20399;-88
2022/04/19 03:01:17;;;;;;;12.43;4.32;;;;;;;8.38;100.00;99126.81;4830346;29;20103;-87
2022/04/19 03:03:43;;;;;;;6.07;3.90;;;;;;;8.23;100.00;99120.72;4816861;29;20076;-85
2022/04/19 03:06:09;;;;;;;12.95;3.63;;;;;;;8.20;100.00;99113.25;4843047;29;20093;-85
2022/04/19 03:08:35;;;;;;;12.13;3.83;;;;;;;8.19;100.00;99128.13;4830425;29;20504;-86
2022/04/19 03:11:04;;;;;;;10.07;3.17;;;;;;;8.34;100.00;99136.00;4830537;29;20034;-86
2022/04/19 03:13:31;;;;;;;9.63;3.72;;;;;;;8.37;100.00;99134.84;4812332;29;20045;-86
2022/04/19 03:15:57;;;;;;;11.82;4.05;;;;;;;8.29;100.00;99131.31;4817333;29;20114;-85
2022/04/19 03:18:22;;;;;;;12.13;4.72;;;;;;;8.29;100.00;99123.47;4843683;29;20081;-86
2022/04/19 03:20:48;;;;;;;15.45;4.88;;;;;;;8.01;100.00;99094.44;4840406;29;20396;-85
2022/04/19 03:28:45;;;;;;;11.60;4.35;;;;;;;8.27;100.00;99140.34;4852240;29;20038;-85
2022/04/19 03:31:12;;;;;;;15.98;4.75;;;;;;;8.09;100.00;99117.94;4853725;29;20430;-85
2022/04/19 03:33:39;;;;;;;15.60;4.57;;;;;;;8.32;100.00;99142.41;4843345;29;20035;-85
2022/04/19 03:36:05;;;;;;;9.77;4.10;;;;;;;8.10;100.00;99124.78;4856179;29;20037;-86
2022/04/19 03:38:31;;;;;;;13.70;4.90;;;;;;;8.21;100.00;99147.06;4830067;29;20401;-85
2022/04/19 03:40:57;;;;;;;10.52;4.20;;;;;;;8.13;100.00;99136.66;4845503;29;20030;-86
2022/04/19 03:43:23;;;;;;;11.00;4.70;;;;;;;8.20;100.00;99144.63;4846348;29;20045;-86
2022/04/19 03:45:49;;;;;;;15.35;5.65;;;;;;;8.05;100.00;99131.50;4849896;29;20038;-86
2022/04/19 03:48:14;;;;;;;13.02;5.43;;;;;;;7.83;100.00;99113.84;4843488;29;20075;-87
2022/04/19 03:50:41;;;;;;;16.15;5.10;;;;;;;7.89;100.00;99129.84;4844374;29;20074;-85
2022/04/19 03:53:07;;;;;;;9.77;5.10;;;;;;;8.03;100.00;99136.09;4844320;29;20040;-86
2022/04/19 03:55:33;;;;;;;12.63;5.30;;;;;;;8.00;100.00;99139.88;4842703;29;20069;-85
2022/04/19 03:57:58;;;;;;;13.50;5.18;;;;;;;7.89;100.00;99155.97;4840730;29;20061;-86
2022/04/19 04:00:24;;;;;;;14.02;5.32;;;;;;;7.89;100.00;99153.38;4828864;29;20061;-86
2022/04/19 04:02:50;;;;;;;13.77;6.30;;;;;;;7.79;100.00;99151.78;4829955;29;20040;-86
2022/04/19 04:05:16;;;;;;;14.95;5.53;;;;;;;7.78;100.00;99152.78;4844330;29;20037;-86
2022/04/19 04:07:42;;;;;;;18.95;5.32;;;;;;;7.78;100.00;99162.44;4845339;29;20105;-86
2022/04/19 04:10:08;;;;;;;15.43;5.90;;;;;;;7.80;100.00;99170.91;4856343;29;20061;-89
2022/04/19 04:12:34;;;;;;;10.57;5.28;;;;;;;7.68;100.00;99160.03;4849951;29;20071;-88
2022/04/19 04:15:02;;;;;;;17.75;6.10;;;;;;;7.65;100.00;99165.56;4847846;29;20037;-86
2022/04/19 04:17:29;;;;;;;13.00;4.85;;;;;;;7.74;100.00;99161.94;4855403;29;20033;-86
2022/04/19 04:19:57;;;;;;;10.38;4.15;;;;;;;7.73;100.00;99170.78;4851283;29;20040;-87
2022/04/19 04:22:24;;;;;;;13.77;5.18;;;;;;;7.68;100.00;99170.50;4843483;29;20493;-89
2022/04/19 04:24:50;;;;;;;11.68;5.70;;;;;;;7.63;100.00;99172.78;4832862;29;20040;-88
2022/04/19 04:27:15;;;;;;;18.55;5.13;;;;;;;7.61;100.00;99170.34;4845264;29;20459;-87
2022/04/19 04:29:41;;;;;;;14.35;4.68;;;;;;;7.68;100.00;99175.72;4844823;29;20034;-86
2022/04/19 04:32:07;;;;;;;13.32;4.93;;;;;;;7.61;100.00;99164.31;4855850;29;20044;-85
2022/04/19 04:34:33;;;;;;;12.48;4.50;;;;;;;7.60;100.00;99160.06;4845140;29;20030;-86
2022/04/19 04:36:58;;;;;;;10.77;4.50;;;;;;;7.63;100.00;99167.56;4853680;29;20073;-86
2022/04/19 04:39:24;;;;;;;9.82;4.68;;;;;;;7.64;100.00;99177.84;4855880;29;20025;-86
2022/04/19 04:41:49;;;;;;;12.45;4.78;;;;;;;7.52;100.00;99159.13;4822668;29;20037;-87
2022/04/19 04:44:15;;;;;;;14.00;4.35;;;;;;;7.56;100.00;99168.25;4844005;29;20124;-85
2022/04/19 04:49:36;;;;;;;10.50;3.90;;;;;;;7.62;100.00;99182.44;4857509;29;20404;-90
2022/04/19 04:52:04;;;;;;;10.52;5.30;;;;;;;7.60;100.00;99178.34;4845762;29;20167;-89
2022/04/19 04:54:30;;;;;;;13.20;4.50;;;;;;;7.61;100.00;99166.91;4832071;29;20134;-90
2022/04/19 04:56:56;;;;;;;11.95;5.35;;;;;;;7.72;100.00;99190.84;4832411;29;20396;-88
2022/04/19 04:59:21;;;;;;;10.68;4.32;;;;;;;7.70;100.00;99182.38;4862383;29;20029;-88
2022/04/19 05:01:47;;;;;;;14.63;4.38;;;;;;;7.69;100.00;99180.75;4836567;29;20515;-88
2022/04/19 05:04:13;;;;;;;9.68;4.57;;;;;;;7.73;100.00;99191.69;4849352;29;20029;-86
2022/04/19 05:06:38;;;;;;;9.35;3.88;;;;;;;7.69;100.00;99198.25;4849709;29;20033;-86
2022/04/19 05:09:04;;;;;;;8.65;3.78;;;;;;;7.77;100.00;99203.41;4850995;29;20037;-86
2022/04/19 05:11:30;;;;;;;11.40;4.63;;;;;;;7.65;100.00;99189.09;4849617;29;20119;-87
2022/04/19 05:13:56;;;;;;;12.65;4.50;;;;;;;7.62;100.00;99186.81;4849856;29;20190;-88
2022/04/19 05:16:22;;;;;;;17.27;4.40;;;;;;;7.58;100.00;99210.69;4852061;29;20041;-86
2022/04/19 05:18:48;;;;;;;9.88;3.95;;;;;;;7.55;100.00;99182.28;4848151;29;20170;-88
2022/04/19 05:21:13;;;;;;;7.78;3.80;;;;;;;7.55;100.00;99191.91;4856357;29;20025;-86
2022/04/19 05:23:39;;;;;;;11.80;4.22;;;;;;;7.77;100.00;99208.63;4851635;29;20109;-89
2022/04/19 05:26:04;;;;;;;12.52;4.18;;;;;;;7.80;100.00;99204.88;4851555;29;20072;-88
2022/04/19 05:28:30;;;;;;;7.88;3.53;;;;;;;7.80;100.00;99213.50;4849312;29;20064;-86
2022/04/19 05:30:56;;;;;;;8.65;3.72;;;;;;;7.81;100.00;99204.69;4845873;29;20044;-87
2022/04/19 05:33:22;;;;;;;9.65;4.13;;;;;;;7.81;100.00;99209.91;4857564;29;20069;-88
2022/04/19 05:35:47;;;;;;;7.82;3.80;;;;;;;7.79;100.00;99195.41;4847643;29;20038;-87
2022/04/19 05:38:13;;;;;;;9.15;3.03;;;;;;;7.75;100.00;99192.31;4863807;29;20026;-89
2022/04/19 05:40:40;;;;;;;8.52;3.55;;;;;;;7.91;100.00;99214.91;4849284;29;20062;-88
2022/04/19 05:43:06;;;;;;;16.98;4.53;;;;;;;7.98;100.00;99215.03;4864025;29;20496;-90
2022/04/19 05:45:32;;;;;;;9.50;3.85;;;;;;;8.05;100.00;99205.50;4834066;29;20069;-88
2022/04/19 05:48:00;;;;;;;7.40;3.28;;;;;;;8.13;100.00;99212.50;4849803;29;20135;-88
2022/04/19 05:50:29;;;;;;;9.75;3.40;;;;;;;8.30;100.00;99197.50;4860108;29;20069;-86
2022/04/19 05:52:55;;;;;;;7.78;2.70;;;;;;;8.26;100.00;99214.56;4850353;29;20060;-89
2022/04/19 05:55:21;;;;;;;8.90;3.47;;;;;;;8.54;100.00;99219.25;4833999;29;20026;-86
2022/04/19 05:57:47;;;;;;;8.60;3.25;;;;;;;8.62;100.00;99190.38;4847254;29;20042;-86
2022/04/19 06:00:13;;;;;;;10.15;2.92;;;;;;;8.82;100.00;99216.03;4828145;29;20048;-88
2022/04/19 06:05:23;;;;;;;9.75;2.95;;;;;;;8.97;100.00;99203.78;4837243;29;20045;-89
2022/04/19 06:07:52;;;;;;;9.15;2.95;;;;;;;9.21;100.00;99199.28;4849517;29;20507;-88
2022/04/19 06:10:22;;;;;;;8.52;2.65;;;;;;;9.39;100.00;99213.81;4816919;29;20589;-87
2022/04/19 06:12:48;;;;;;;7.88;2.53;;;;;;;9.23;100.00;99205.13;4839054;29;20489;-88
2022/04/19 06:15:14;;;;;;;6.38;2.50;;;;;;;9.28;99.98;99205.44;4839426;29;20040;-88
2022/04/19 06:17:41;;;;;;;8.40;2.83;;;;;;;9.24;100.00;99185.84;4833009;29;20034;-85
2022/04/19 06:20:07;;;;;;;5.70;2.70;;;;;;;9.40;100.00;99212.81;4847234;29;20049;-85
2022/04/19 06:22:33;;;;;;;9.18;2.63;;;;;;;9.27;100.00;99213.44;4842547;29;20053;-87
2022/04/19 06:24:59;;;;;;;8.52;2.65;;;;;;;9.47;100.00;99221.59;4823302;29;20030;-83
2022/04/19 06:27:25;;;;;;;5.70;2.42;;;;;;;9.54;99.78;99226.91;4856306;29;20061;-85
2022/04/19 06:29:52;;;;;;;5.85;2.20;;;;;;;9.52;98.44;99227.06;4829506;29;20117;-84
2022/04/19 06:32:22;;;;;;;8.90;2.80;;;;;;;9.51;99.26;99216.75;4838746;29;20026;-86
2022/04/19 06:34:48;;;;;;;5.38;2.42;;;;;;;9.46;99.63;99225.19;4835465;29;20040;-85
2022/04/19 06:37:14;;;;;;;6.57;2.50;;;;;;;9.43;99.53;99233.41;4855527;29;20034;-86
2022/04/19 06:39:41;;;;;;;4.90;2.40;;;;;;;9.36;99.80;99216.78;4845280;29;20052;-89
2022/04/19 06:42:07;;;;;;;5.45;2.50;;;;;;;9.45;98.41;99220.94;4853040;29;20129;-87
2022/04/19 06:44:33;;;;;;;5.35;2.38;;;;;;;9.55;98.34;99237.19;4840142;29;20121;-86
2022/04/19 06:46:59;;;;;;;6.00;2.40;;;;;;;9.48;98.76;99223.19;4839919;29;20405;-88
2022/04/19 06:49:25;;;;;;;5.93;2.50;;;;;;;9.63;99.29;99225.78;4829743;29;20067;-86
2022/04/19 06:51:50;;;;;;;12.98;2.50;;;;;;;9.89;98.97;99242.81;4836776;29;20038;-86
2022/04/19 06:54:16;;;;;;;9.45;2.85;;;;;;;10.12;97.91;99229.53;4843105;29;20038;-85
2022/04/19 06:56:45;;;;;;;5.78;2.30;;;;;;;10.49;96.93;99236.56;4850873;29;20086;-87
2022/04/19 06:59:11;;;;;;;9.77;2.50;;;;;;;10.57;95.57;99234.63;4854075;29;20034;-86
2022/04/19 07:01:40;;;;;;;12.02;2.53;;;;;;;11.09;95.01;99246.72;4855010;29;20101;-84
2022/04/19 07:04:08;;;;;;;7.72;2.80;;;;;;;11.21;95.37;99245.16;4840853;29;20125;-84
2022/04/19 07:06:34;;;;;;;8.93;2.78;;;;;;;11.29;93.94;99250.25;4836890;29;20038;-86
2022/04/19 07:08:59;;;;;;;6.90;2.53;;;;;;;11.69;94.24;99257.53;4854429;29;20489;-86
2022/04/19 07:11:25;;;;;;;7.32;2.75;;;;;;;11.69;94.37;99251.44;4840498;29;20041;-87
2022/04/19 07:13:51;;;;;;;8.15;2.67;;;;;;;11.41;93.61;99244.47;4854327;29;20492;-86
2022/04/19 07:16:17;;;;;;;9.60;3.00;;;;;;;11.44;94.56;99241.44;4830709;29;20034;-89
2022/04/19 07:18:44;;;;;;;7.22;3.35;;;;;;;11.45;95.57;99264.09;4828217;29;20108;-83
2022/04/19 07:26:38;;;;;;;5.72;2.83;;;;;;;11.26;95.98;99258.53;4873306;29;20131;-81
2022/04/19 07:29:15;;;;;;;8.18;2.95;;;;;;;11.67;95.76;99264.00;4875674;29;20037;-80
2022/04/19 07:31:46;;;;;;;8.05;2.80;;;;;;;11.66;94.86;99263.16;4876251;29;20526;-83
2022/04/19 07:34:13;;;;;;;9.90;3.10;;;;;;;11.58;95.04;99272.03;4859846;29;20379;-82
2022/04/19 07:36:42;;;;;;;6.93;3.15;;;;;;;11.82;94.00;99272.56;4881232;29;20549;-83
2022/04/19 07:39:12;;;;;;;10.90;3.30;;;;;;;11.23;95.35;99264.19;4881002;29;20037;-83
2022/04/19 07:41:39;;;;;;;6.05;2.75;;;;;;;11.52;94.63;99267.56;4878707;29;20037;-83
2022/04/19 07:44:06;;;;;;;7.65;3.08;;;;;;;11.16;94.61;99273.81;4864140;29;20399;-83
2022/04/19 07:46:33;;;;;;;7.93;3.00;;;;;;;11.26;94.90;99274.31;4848029;29;20044;-83
2022/04/19 07:48:59;;;;;;;6.95;3.15;;;;;;;11.46;94.12;99275.41;4863119;29;20036;-83
2022/04/19 07:51:25;;;;;;;6.05;3.00;;;;;;;11.16;94.83;99283.53;4861444;29;20028;-83
2022/04/19 07:53:51;;;;;;;8.90;4.05;;;;;;;10.85;95.79;99282.91;4846325;29;20065;-82
2022/04/19 07:56:17;;;;;;;7.65;3.50;;;;;;;10.46;96.96;99277.13;4880383;29;20032;-83
2022/04/19 07:58:43;;;;;;;10.60;3.58;;;;;;;10.84;97.17;99270.78;4880047;29;20180;-83
2022/04/19 08:01:12;;;;;;;5.85;3.28;;;;;;;10.97;96.79;99264.81;4863733;29;20029;-83
2022/04/19 08:03:38;;;;;;;8.48;3.83;;;;;;;11.07;97.69;99280.25;4863874;29;20044;-83
2022/04/19 08:06:05;;;;;;;9.85;4.18;;;;;;;11.02;97.04;99272.13;4878377;29;20108;-82
2022/04/19 08:08:31;;;;;;;7.25;3.78;;;;;;;11.07;96.98;99290.75;4864285;29;20040;-82
2022/04/19 08:10:57;;;;;;;10.18;3.75;;;;;;;11.11;96.63;99276.22;4863958;29;20064;-83
2022/04/19 08:13:23;;;;;;;10.57;3.70;;;;;;;10.79;96.71;99288.91;4879726;29;20039;-83
2022/04/19 08:15:50;;;;;;;13.23;4.80;;;;;;;10.92;96.49;99281.13;4861257;29;20044;-83
2022/04/19 08:18:18;;;;;;;10.00;4.00;;;;;;;10.82;96.80;99288.56;4879581;29;20037;-83
2022/04/19 08:20:45;;;;;;;10.43;4.22;;;;;;;10.87;96.70;99296.66;4854898;29;20036;-83
2022/04/19 08:23:11;;;;;;;9.25;4.20;;;;;;;10.91;96.43;99292.66;4847418;29;20042;-83
2022/04/19 08:25:39;;;;;;;10.90;3.85;;;;;;;11.13;95.65;99289.97;4846813;29;20034;-83
2022/04/19 08:28:06;;;;;;;7.88;4.03;;;;;;;11.32;95.94;99288.50;4844019;29;20052;-82
2022/04/19 08:30:31;;;;;;;9.05;3.92;;;;;;;11.51;95.00;99292.22;4849371;29;20444;-83
2022/04/19 08:32:58;;;;;;;10.35;3.95;;;;;;;11.43;94.12;99295.03;4854577;29;20037;-83
2022/04/19 08:35:24;;;;;;;12.20;3.92;;;;;;;11.58;94.67;99300.16;4829526;29;20169;-85
2022/04/19 08:37:50;;;;;;;9.73;4.05;;;;;;;11.37;94.58;99283.47;4814237;29;20496;-82
2022/04/19 08:40:16;;;;;;;8.75;4.57;;;;;;;11.39;93.88;99288.50;4829476;29;20033;-82
2022/04/19 08:42:43;;;;;;;11.60;4.18;;;;;;;11.33;94.68;99284.84;4833222;29;20488;-82
2022/04/19 08:45:10;;;;;;;8.07;4.40;;;;;;;11.43;93.87;99268.75;4846799;29;20041;-82
2022/04/19 08:47:42;;;;;;;6.60;3.78;;;;;;;11.66;91.86;99294.72;4840163;29;20041;-81
2022/04/19 08:50:10;;;;;;;8.60;4.50;;;;;;;11.74;92.43;99288.47;4837960;29;20033;-84
2022/04/19 08:52:36;;;;;;;8.93;4.40;;;;;;;11.55;92.42;99282.13;4829223;29;20459;-83
2022/04/19 08:57:49;;;;;;;8.55;3.78;;;;;;;11.79;91.28;99286.09;4845743;29;20078;-84
2022/04/19 09:00:15;;;;;;;11.85;4.88;;;;;;;11.75;91.71;99286.69;4843721;29;20046;-84
2022/04/19 09:02:41;;;;;;;11.68;5.20;;;;;;;11.60;91.29;99286.81;4828657;29;20255;-84
2022/04/19 09:05:14;;;;;;;6.78;4.22;;;;;;;11.78;90.85;99292.34;4814398;29;20059;-84
2022/04/19 09:07:40;;;;;;;7.07;4.15;;;;;;;11.48;90.03;99287.34;4841119;29;20036;-83
2022/04/19 09:10:07;;;;;;;10.13;4.93;;;;;;;11.65;88.80;99282.56;4830338;29;20037;-83
2022/04/19 09:12:33;;;;;;;10.63;5.30;;;;;;;11.53;89.73;99290.22;4831106;29;20041;-83
2022/04/19 09:15:04;;;;;;;12.18;5.65;;;;;;;11.74;89.56;99285.84;4839676;29;20030;-84
2022/04/19 09:17:34;;;;;;;11.00;5.03;;;;;;;12.10;91.37;99289.25;4848002;29;20041;-85
2022/04/19 09:20:19;;;;;;;6.57;5.03;;;;;;;11.99;90.28;99293.25;4845505;29;20034;-84
2022/04/19 09:22:50;;;;;;;6.35;4.85;;;;;;;12.20;90.95;99283.63;4838799;29;20129;-84
2022/04/19 09:25:18;;;;;;;7.80;5.28;;;;;;;12.11;88.35;99291.69;4838821;29;20042;-83
2022/04/19 09:27:45;;;;;;;6.63;5.47;;;;;;;12.55;88.99;99291.34;4836080;29;20066;-83
2022/04/19 09:30:20;;;;;;;7.20;5.70;;;;;;;12.84;86.69;99294.63;4846339;29;20042;-83
2022/04/19 09:33:11;;;;;;;13.15;5.85;;;;;;;13.31;87.16;99293.75;4824249;29;20045;-84
2022/04/19 09:35:43;;;;;;;6.70;6.00;;;;;;;12.62;86.45;99302.72;4831836;29;20033;-83
2022/04/19 09:38:09;;;;;;;7.90;6.45;;;;;;;12.50;86.00;99288.53;4846021;29;20122;-83
2022/04/19 09:40:38;;;;;;;10.52;6.70;;;;;;;13.19;85.15;99278.59;4824478;29;20038;-83
2022/04/19 09:43:22;;;;;;;12.50;7.05;;;;;;;13.60;84.56;99283.78;4828461;29;20034;-83
2022/04/19 09:45:59;;;;;;;7.95;6.63;;;;;;;13.91;83.34;99284.84;4846313;29;20045;-83
2022/04/19 09:48:28;;;;;;;11.20;6.97;;;;;;;14.09;83.82;99286.81;4843383;29;20563;-84
2022/04/19 09:51:09;;;;;;;10.02;6.63;;;;;;;14.11;81.80;99277.66;4844029;29;20100;-83
2022/04/19 09:53:45;;;;;;;9.57;7.35;;;;;;;14.32;81.59;99288.91;4846242;29;20042;-84
2022/04/19 09:56:21;;;;;;;13.60;8.30;;;;;;;14.66;80.60;99278.91;4848115;29;20038;-84
2022/04/19 09:58:49;;;;;;;7.25;6.75;;;;;;;14.58;78.59;99284.47;4846800;29;20034;-84
2022/04/19 10:09:34;;;;;;;9.50;7.50;;;;;;;14.37;78.01;99294.38;4854441;29;20112;-82
2022/04/19 10:12:01;;;;;;;12.10;7.40;;;;;;;13.73;77.67;99288.19;4860734;29;20417;-86
2022/04/19 10:14:29;;;;;;;11.55;7.30;;;;;;;13.81;78.34;99278.22;4850433;29;20040;-86
2022/04/19 10:17:00;;;;;;;8.95;7.10;;;;;;;13.57;78.44;99288.47;4850622;29;20037;-87
2022/04/19 10:19:27;;;;;;;8.88;7.43;;;;;;;13.51;78.71;99293.75;4843606;29;20030;-82
2022/04/19 10:21:54;;;;;;;9.65;6.57;;;;;;;13.62;78.77;99287.03;4827716;29;20041;-84
2022/04/19 10:24:20;;;;;;;7.40;6.10;;;;;;;13.85;77.42;99289.13;4839337;29;20132;-84
2022/04/19 10:26:51;;;;;;;7.10;6.32;;;;;;;13.40;75.89;99297.81;4846828;29;20520;-84
2022/04/19 10:29:29;;;;;;;7.00;6.50;;;;;;;13.67;76.08;99305.66;4856230;29;20042;-84
2022/04/19 10:32:01;;;;;;;8.68;6.43;;;;;;;13.53;75.66;99297.78;4853990;29;20033;-84
2022/04/19 10:34:33;;;;;;;7.03;6.38;;;;;;;13.33;75.53;99310.19;4850705;29;20585;-84
2022/04/19 10:37:11;;;;;;;8.18;6.38;;;;;;;13.71;74.58;99306.84;4855048;29;20511;-86
2022/04/19 10:39:45;;;;;;;6.65;6.10;;;;;;;13.33;74.26;99295.19;4844662;29;20447;-86
2022/04/19 10:42:37;;;;;;;7.15;6.20;;;;;;;13.59;73.29;99311.19;4851707;29;20033;-85
2022/04/19 10:45:15;;;;;;;8.43;6.60;;;;;;;14.02;73.67;99315.88;4838219;29;20041;-84
2022/04/19 10:47:59;;;;;;;6.28;5.78;;;;;;;13.84;74.13;99314.72;4836819;29;20030;-86
2022/04/19 10:50:39;;;;;;;8.60;6.85;;;;;;;14.44;72.12;99307.50;4845281;29;20077;-84
2022/04/19 10:53:09;;;;;;;7.20;6.57;;;;;;;14.51;73.37;99318.84;4836660;29;20041;-85
2022/04/19 10:55:38;;;;;;;7.00;6.30;;;;;;;14.97;73.81;99308.19;4857976;29;20025;-84
2022/04/19 11:00:45;;;;;;;7.57;6.55;;;;;;;14.51;71.85;99312.75;4853052;29;20155;-82
2022/04/19 11:03:19;;;;;;;10.68;6.30;;;;;;;14.42;73.26;99305.09;4843603;29;20037;-82
2022/04/19 11:05:56;;;;;;;7.15;6.53;;;;;;;15.16;72.85;99309.03;4848706;29;20053;-81
2022/04/19 11:08:25;;;;;;;7.25;6.60;;;;;;;15.54;71.89;99304.56;4839748;29;20041;-85
2022/04/19 11:10:50;;;;;;;7.80;7.00;;;;;;;14.54;73.40;99317.59;4833395;29;20049;-84
2022/04/19 11:13:16;;;;;;;7.07;6.55;;;;;;;15.22;74.27;99318.72;4829574;29;20030;-84
2022/04/19 11:15:42;;;;;;;8.80;6.85;;;;;;;15.84;70.82;99309.91;4839530;29;20037;-82
2022/04/19 11:18:28;;;;;;;8.85;6.80;;;;;;;16.01;70.36;99290.81;4844156;29;20055;-84
2022/04/19 11:20:59;;;;;;;9.45;7.40;;;;;;;15.96;71.80;99314.50;4852074;29;20037;-84
2022/04/19 11:23:26;;;;;;;8.52;7.45;;;;;;;15.91;70.61;99311.69;4844386;29;20109;-84
2022/04/19 11:25:54;;;;;;;10.43;6.93;;;;;;;15.34;70.82;99315.38;4854931;29;20037;-85
2022/04/19 11:28:30;;;;;;;8.82;6.97;;;;;;;14.94;71.30;99316.53;4844493;29;20393;-85
2022/04/19 11:30:55;;;;;;;13.43;7.30;;;;;;;14.56;71.99;99320.88;4828200;29;20105;-84
2022/04/19 11:33:22;;;;;;;7.88;7.00;;;;;;;14.64;72.74;99323.25;4843800;29;20069;-84
2022/04/19 11:36:04;;;;;;;8.32;7.38;;;;;;;14.66;71.58;99315.13;4829892;29;20038;-84
2022/04/19 11:38:31;;;;;;;10.77;7.90;;;;;;;15.16;73.45;99318.78;4856747;29;20036;-84
2022/04/19 11:46:51;;;;;;;9.85;7.13;;;;;;;15.51;72.47;99305.81;4852699;29;20135;-84
2022/04/19 11:49:16;;;;;;;8.02;7.22;;;;;;;14.88;73.75;99314.78;4852934;29;20052;-83
2022/04/19 11:52:03;;;;;;;7.45;6.85;;;;;;;15.17;72.85;99310.66;4844110;29;20049;-84
2022/04/19 11:54:31;;;;;;;9.73;7.25;;;;;;;15.47;73.11;99306.50;4847809;29;20458;-84
2022/04/19 11:57:08;;;;;;;7.78;7.03;;;;;;;16.39;73.74;99302.91;4843808;29;20041;-84
2022/04/19 11:59:42;;;;;;;8.23;7.40;;;;;;;15.42;72.25;99310.59;4830269;29;20041;-84
2022/04/19 12:02:19;;;;;;;8.77;7.88;;;;;;;16.11;72.56;99306.16;4855604;29;20034;-84
2022/04/19 12:04:54;;;;;;;9.68;8.32;;;;;;;15.96;71.70;99309.22;4851955;29;20029;-83
2022/04/19 12:07:21;;;;;;;8.93;8.02;;;;;;;16.30;73.07;99300.81;4854613;29;20029;-84
2022/04/19 12:09:50;;;;;;;9.70;8.80;;;;;;;16.25;70.93;99304.13;4856343;29;20090;-84
2022/04/19 12:12:15;;;;;;;11.07;8.30;;;;;;;15.92;71.98;99303.56;4849622;29;20066;-84